createdAt,value
2017-08-20T00:00:44.900Z,1019.9
2017-08-20T00:01:43.973Z,1020
2017-08-20T00:02:43.533Z,1019.9
2017-08-20T00:03:42.717Z,1019.9
2017-08-20T00:04:42.159Z,1019.9
2017-08-20T00:05:41.097Z,1019.9
2017-08-20T00:06:40.546Z,1019.9
2017-08-20T00:07:39.997Z,1020
2017-08-20T00:08:38.939Z,1020
2017-08-20T00:09:38.388Z,1019.9
2017-08-20T00:10:37.444Z,1019.9
2017-08-20T00:11:37.011Z,1019.9
2017-08-20T00:12:36.183Z,1020
2017-08-20T00:13:35.259Z,1020
2017-08-20T00:14:34.932Z,1020
2017-08-20T00:15:34.262Z,1019.9
2017-08-20T00:16:33.447Z,1019.9
2017-08-20T00:17:32.501Z,1019.9
2017-08-20T00:18:31.946Z,1019.9
2017-08-20T00:19:31.278Z,1020
2017-08-20T00:20:30.344Z,1019.9
2017-08-20T00:21:29.543Z,1019.9
2017-08-20T00:22:28.877Z,1020
2017-08-20T00:23:28.434Z,1020
2017-08-20T00:24:27.619Z,1020
2017-08-20T00:25:26.686Z,1019.9
2017-08-20T00:26:26.253Z,1020
2017-08-20T00:27:25.314Z,1020
2017-08-20T00:28:24.870Z,1020
2017-08-20T00:28:55.357Z,1020
2017-08-20T00:29:25.725Z,1020
2017-08-20T00:30:23.270Z,1020
2017-08-20T00:32:21.848Z,1020
2017-08-20T00:33:20.795Z,1020
2017-08-20T00:34:20.477Z,1020
2017-08-20T00:35:19.533Z,1020
2017-08-20T00:36:19.095Z,1020
2017-08-20T00:37:18.273Z,1020
2017-08-20T00:38:17.223Z,1020
2017-08-20T00:38:47.710Z,1020
2017-08-20T00:39:18.198Z,1020
2017-08-20T00:39:48.685Z,1020
2017-08-20T00:40:19.065Z,1020.1
2017-08-20T00:40:49.552Z,1020.1
2017-08-20T00:42:14.392Z,1020.1
2017-08-20T00:43:13.578Z,1020.1
2017-08-20T00:44:13.264Z,1020.1
2017-08-20T00:45:12.322Z,1020.1
2017-08-20T00:46:11.513Z,1020.1
2017-08-20T00:47:10.691Z,1020.1
2017-08-20T00:48:10.258Z,1020.2
2017-08-20T00:49:09.433Z,1020.1
2017-08-20T00:50:08.613Z,1020.1
2017-08-20T00:52:07.206Z,1020.2
2017-08-20T00:53:06.271Z,1020.2
2017-08-20T00:54:05.708Z,1020.1
2017-08-20T00:55:04.770Z,1020.1
2017-08-20T00:56:04.333Z,1020
2017-08-20T00:57:03.519Z,1020
2017-08-20T00:58:02.612Z,1020.1
2017-08-20T00:59:02.290Z,1020.1
2017-08-20T01:00:01.471Z,1020.1
2017-08-20T01:01:00.530Z,1020.1
2017-08-20T01:02:58.991Z,1020.1
2017-08-20T01:03:58.439Z,1020.1
2017-08-20T01:04:57.620Z,1020.1
2017-08-20T01:05:57.186Z,1020.1
2017-08-20T01:06:56.366Z,1020.1
2017-08-20T01:07:55.541Z,1020.1
2017-08-20T01:08:54.600Z,1020.1
2017-08-20T01:10:53.432Z,1020.1
2017-08-20T01:11:52.611Z,1020.1
2017-08-20T01:12:51.944Z,1020.1
2017-08-20T01:13:50.994Z,1020.1
2017-08-20T01:14:50.324Z,1020.2
2017-08-20T01:15:49.577Z,1020.2
2017-08-20T01:16:48.761Z,1020.2
2017-08-20T01:17:48.319Z,1020.2
2017-08-20T01:18:47.495Z,1020.2
2017-08-20T01:19:46.570Z,1020.3
2017-08-20T01:20:17.053Z,1020.3
2017-08-20T01:20:47.541Z,1020.2
2017-08-20T01:21:18.061Z,1020.2
2017-08-20T01:22:44.407Z,1020.2
2017-08-20T01:23:43.474Z,1020.2
2017-08-20T01:24:43.159Z,1020.2
2017-08-20T01:25:42.339Z,1020.2
2017-08-20T01:26:41.522Z,1020.2
2017-08-20T01:27:40.576Z,1020.2
2017-08-20T01:28:40.248Z,1020.2
2017-08-20T01:29:39.075Z,1020.2
2017-08-20T01:31:38.018Z,1020.2
2017-08-20T01:32:37.198Z,1020.2
2017-08-20T01:33:36.266Z,1020.2
2017-08-20T01:36:34.099Z,1020.2
2017-08-20T01:37:33.159Z,1020.2
2017-08-20T01:38:32.849Z,1020.2
2017-08-20T01:40:30.908Z,1020.2
2017-08-20T01:41:30.358Z,1020.2
2017-08-20T01:42:29.920Z,1020.2
2017-08-20T01:43:29.097Z,1020.2
2017-08-20T01:44:28.273Z,1020.2
2017-08-20T01:45:27.214Z,1020.2
2017-08-20T01:46:26.894Z,1020.1
2017-08-20T01:47:26.079Z,1020.2
2017-08-20T01:48:25.024Z,1020.1
2017-08-20T01:49:24.715Z,1020.1
2017-08-20T01:50:23.650Z,1020.2
2017-08-20T01:51:23.216Z,1020.2
2017-08-20T01:52:22.275Z,1020.2
2017-08-20T01:53:21.333Z,1020.2
2017-08-20T01:54:21.009Z,1020.2
2017-08-20T01:55:20.190Z,1020.2
2017-08-20T01:56:19.366Z,1020.2
2017-08-20T01:57:18.546Z,1020.2
2017-08-20T01:58:17.718Z,1020.2
2017-08-20T02:00:16.291Z,1020.3
2017-08-20T02:01:15.471Z,1020.3
2017-08-20T02:02:14.650Z,1020.3
2017-08-20T02:03:14.322Z,1020.3
2017-08-20T02:04:13.495Z,1020.3
2017-08-20T02:05:12.554Z,1020.3
2017-08-20T02:06:11.729Z,1020.3
2017-08-20T02:06:42.096Z,1020.3
2017-08-20T02:07:12.467Z,1020.3
2017-08-20T02:08:10.521Z,1020.4
2017-08-20T02:09:09.466Z,1020.3
2017-08-20T02:10:08.920Z,1020.3
2017-08-20T02:11:08.108Z,1020.4
2017-08-20T02:12:07.172Z,1020.4
2017-08-20T02:13:06.859Z,1020.4
2017-08-20T02:14:06.036Z,1020.4
2017-08-20T02:15:04.999Z,1020.4
2017-08-20T02:16:04.690Z,1020.4
2017-08-20T02:17:03.758Z,1020.3
2017-08-20T02:18:02.933Z,1020.3
2017-08-20T02:19:02.109Z,1020.3
2017-08-20T02:20:01.284Z,1020.3
2017-08-20T02:21:00.851Z,1020.3
2017-08-20T02:21:59.910Z,1020.4
2017-08-20T02:22:59.478Z,1020.4
2017-08-20T02:23:58.600Z,1020.3
2017-08-20T02:25:56.816Z,1020.3
2017-08-20T02:26:56.503Z,1020.3
2017-08-20T02:27:55.682Z,1020.4
2017-08-20T02:28:54.739Z,1020.4
2017-08-20T02:29:53.914Z,1020.4
2017-08-20T02:30:53.089Z,1020.4
2017-08-20T02:31:52.769Z,1020.4
2017-08-20T02:32:51.833Z,1020.4
2017-08-20T02:33:50.891Z,1020.4
2017-08-20T02:34:50.574Z,1020.4
2017-08-20T02:36:48.633Z,1020.4
2017-08-20T02:37:48.304Z,1020.4
2017-08-20T02:38:47.488Z,1020.4
2017-08-20T02:39:46.680Z,1020.4
2017-08-20T02:41:45.188Z,1020.4
2017-08-20T02:42:44.136Z,1020.4
2017-08-20T02:43:43.693Z,1020.4
2017-08-20T02:44:42.747Z,1020.4
2017-08-20T02:45:42.312Z,1020.4
2017-08-20T02:46:41.442Z,1020.5
2017-08-20T02:51:37.830Z,1020.5
2017-08-20T02:52:37.002Z,1020.4
2017-08-20T02:53:36.185Z,1020.5
2017-08-20T02:54:35.362Z,1020.5
2017-08-20T02:55:34.562Z,1020.5
2017-08-20T02:57:33.010Z,1020.5
2017-08-20T02:58:32.586Z,1020.5
2017-08-20T02:59:31.767Z,1020.5
2017-08-20T03:00:30.833Z,1020.6
2017-08-20T03:01:30.391Z,1020.5
2017-08-20T03:03:28.848Z,1020.6
2017-08-20T03:04:28.021Z,1020.6
2017-08-20T03:05:27.583Z,1020.6
2017-08-20T03:06:26.644Z,1020.6
2017-08-20T03:07:25.698Z,1020.6
2017-08-20T03:08:25.136Z,1020.6
2017-08-20T03:08:55.513Z,1020.6
2017-08-20T03:09:25.884Z,1020.6
2017-08-20T03:09:56.406Z,1020.6
2017-08-20T03:12:21.921Z,1020.6
2017-08-20T03:13:21.600Z,1020.6
2017-08-20T03:15:20.052Z,1020.6
2017-08-20T03:16:19.227Z,1020.7
2017-08-20T03:17:18.400Z,1020.7
2017-08-20T03:18:17.573Z,1020.7
2017-08-20T03:19:17.171Z,1020.7
2017-08-20T03:21:15.268Z,1020.7
2017-08-20T03:22:14.828Z,1020.7
2017-08-20T03:24:13.396Z,1020.7
2017-08-20T03:25:12.569Z,1020.7
2017-08-20T03:26:11.752Z,1020.7
2017-08-20T03:27:10.930Z,1020.7
2017-08-20T03:28:10.491Z,1020.8
2017-08-20T03:30:08.560Z,1020.8
2017-08-20T03:31:08.143Z,1020.8
2017-08-20T03:32:07.322Z,1020.8
2017-08-20T03:33:06.535Z,1020.8
2017-08-20T03:36:04.497Z,1020.9
2017-08-20T03:37:03.564Z,1020.9
2017-08-20T03:38:03.012Z,1020.8
2017-08-20T03:38:33.502Z,1020.8
2017-08-20T03:39:04.011Z,1020.9
2017-08-20T03:39:34.502Z,1020.9
2017-08-20T03:41:00.850Z,1020.9
2017-08-20T03:41:59.806Z,1020.9
2017-08-20T03:42:58.876Z,1020.9
2017-08-20T03:43:58.437Z,1020.9
2017-08-20T03:45:56.762Z,1021
2017-08-20T03:46:55.936Z,1021
2017-08-20T03:47:55.617Z,1021
2017-08-20T03:48:54.681Z,1021
2017-08-20T03:49:53.857Z,1021
2017-08-20T03:50:52.912Z,1021
2017-08-20T03:51:52.590Z,1021.1
2017-08-20T03:52:51.637Z,1021
2017-08-20T03:53:51.099Z,1021.1
2017-08-20T03:54:50.279Z,1021
2017-08-20T03:55:49.532Z,1021
2017-08-20T03:56:48.716Z,1021
2017-08-20T03:57:48.162Z,1021
2017-08-20T03:59:46.220Z,1021
2017-08-20T04:00:45.902Z,1021.2
2017-08-20T04:01:45.087Z,1021.1
2017-08-20T04:02:44.267Z,1021.1
2017-08-20T04:03:43.441Z,1021.1
2017-08-20T04:06:41.163Z,1021.1
2017-08-20T04:07:40.343Z,1021.1
2017-08-20T04:08:39.785Z,1021.2
2017-08-20T04:09:38.848Z,1021.1
2017-08-20T04:10:38.027Z,1021.1
2017-08-20T04:11:37.464Z,1021.1
2017-08-20T04:12:36.639Z,1021.2
2017-08-20T04:13:35.699Z,1021.1
2017-08-20T04:14:35.255Z,1021.2
2017-08-20T04:16:33.831Z,1021.2
2017-08-20T04:17:33.156Z,1021.2
2017-08-20T04:18:32.222Z,1021.2
2017-08-20T04:19:31.273Z,1021.3
2017-08-20T04:20:30.724Z,1021.3
2017-08-20T04:21:30.047Z,1021.3
2017-08-20T04:22:28.988Z,1021.3
2017-08-20T04:23:28.433Z,1021.2
2017-08-20T04:24:27.499Z,1021.3
2017-08-20T04:26:26.146Z,1021.3
2017-08-20T04:27:25.321Z,1021.3
2017-08-20T04:32:21.550Z,1021.3
2017-08-20T04:33:20.723Z,1021.3
2017-08-20T04:34:20.053Z,1021.2
2017-08-20T04:35:19.647Z,1021.2
2017-08-20T04:36:18.812Z,1021.3
2017-08-20T04:37:17.986Z,1021.2
2017-08-20T04:38:17.160Z,1021.2
2017-08-20T04:39:16.226Z,1021.2
2017-08-20T04:40:15.403Z,1021.3
2017-08-20T04:41:14.969Z,1021.3
2017-08-20T04:42:14.145Z,1021.3
2017-08-20T04:43:13.321Z,1021.3
2017-08-20T04:45:11.889Z,1021.3
2017-08-20T04:46:11.062Z,1021.3
2017-08-20T04:47:10.121Z,1021.4
2017-08-20T04:48:09.799Z,1021.4
2017-08-20T04:49:08.618Z,1021.4
2017-08-20T04:51:07.195Z,1021.4
2017-08-20T04:53:05.766Z,1021.4
2017-08-20T04:54:04.948Z,1021.3
2017-08-20T04:55:04.392Z,1021.3
2017-08-20T04:56:03.448Z,1021.3
2017-08-20T04:57:02.626Z,1021.3
2017-08-20T04:59:01.457Z,1021.2
2017-08-20T05:00:00.775Z,1021.2
2017-08-20T05:00:59.962Z,1021.3
2017-08-20T05:01:59.022Z,1021.3
2017-08-20T05:02:58.084Z,1021.2
2017-08-20T05:03:57.764Z,1021.2
2017-08-20T05:04:56.830Z,1021.2
2017-08-20T05:05:56.023Z,1021.2
2017-08-20T05:06:55.208Z,1021.2
2017-08-20T05:07:54.275Z,1021.2
2017-08-20T05:09:53.225Z,1021.2
2017-08-20T05:10:52.402Z,1021.2
2017-08-20T05:12:50.971Z,1021.2
2017-08-20T05:13:50.041Z,1021.2
2017-08-20T05:14:49.096Z,1021.2
2017-08-20T05:15:48.276Z,1021.2
2017-08-20T05:16:47.954Z,1021.1
2017-08-20T05:18:46.403Z,1021.2
2017-08-20T05:20:44.482Z,1021.2
2017-08-20T05:22:43.045Z,1021.1
2017-08-20T05:23:42.484Z,1021.1
2017-08-20T05:24:41.559Z,1021.1
2017-08-20T05:25:40.883Z,1021.2
2017-08-20T05:26:40.096Z,1021.2
2017-08-20T05:27:39.159Z,1021.2
2017-08-20T05:28:38.850Z,1021.2
2017-08-20T05:29:37.909Z,1021.2
2017-08-20T05:31:36.238Z,1021.1
2017-08-20T05:32:35.682Z,1021.1
2017-08-20T05:33:34.623Z,1021.2
2017-08-20T05:34:34.305Z,1021.2
2017-08-20T05:35:33.487Z,1021.2
2017-08-20T05:36:32.659Z,1021.2
2017-08-20T05:37:32.105Z,1021.2
2017-08-20T05:38:31.162Z,1021.2
2017-08-20T05:39:30.489Z,1021.3
2017-08-20T05:40:29.809Z,1021.2
2017-08-20T05:41:28.993Z,1021.2
2017-08-20T05:42:28.056Z,1021.2
2017-08-20T05:43:27.236Z,1021.1
2017-08-20T05:44:26.415Z,1021.2
2017-08-20T05:45:25.600Z,1021.2
2017-08-20T05:46:25.279Z,1021.2
2017-08-20T05:47:24.454Z,1021.2
2017-08-20T05:48:23.517Z,1021.2
2017-08-20T05:49:22.702Z,1021.2
2017-08-20T05:50:21.877Z,1021.2
2017-08-20T05:51:21.439Z,1021.2
2017-08-20T05:52:20.496Z,1021.2
2017-08-20T05:53:19.563Z,1021.2
2017-08-20T05:54:19.245Z,1021.2
2017-08-20T05:55:18.433Z,1021.2
2017-08-20T05:56:17.490Z,1021.3
2017-08-20T05:57:16.550Z,1021.3
2017-08-20T05:58:16.002Z,1021.2
2017-08-20T05:59:15.172Z,1021.2
2017-08-20T06:00:14.736Z,1021.2
2017-08-20T06:01:13.914Z,1021.2
2017-08-20T06:02:12.972Z,1021.3
2017-08-20T06:03:12.036Z,1021.3
2017-08-20T06:04:11.713Z,1021.3
2017-08-20T06:05:10.659Z,1021.3
2017-08-20T06:06:09.843Z,1021.3
2017-08-20T06:07:09.019Z,1021.3
2017-08-20T06:08:08.707Z,1021.3
2017-08-20T06:09:07.764Z,1021.3
2017-08-20T06:10:07.211Z,1021.3
2017-08-20T06:11:06.275Z,1021.4
2017-08-20T06:12:05.341Z,1021.4
2017-08-20T06:13:04.905Z,1021.4
2017-08-20T06:14:03.963Z,1021.4
2017-08-20T06:15:03.031Z,1021.4
2017-08-20T06:16:02.713Z,1021.4
2017-08-20T06:17:01.801Z,1021.4
2017-08-20T06:18:01.058Z,1021.5
2017-08-20T06:19:00.137Z,1021.4
2017-08-20T06:19:59.320Z,1021.4
2017-08-20T06:20:58.887Z,1021.4
2017-08-20T06:21:58.075Z,1021.5
2017-08-20T06:22:57.135Z,1021.5
2017-08-20T06:23:56.708Z,1021.5
2017-08-20T06:24:55.909Z,1021.5
2017-08-20T06:25:55.105Z,1021.5
2017-08-20T06:26:54.167Z,1021.5
2017-08-20T06:27:53.344Z,1021.5
2017-08-20T06:28:53.045Z,1021.5
2017-08-20T06:29:52.222Z,1021.5
2017-08-20T06:30:51.286Z,1021.5
2017-08-20T06:31:50.467Z,1021.5
2017-08-20T06:32:49.924Z,1021.5
2017-08-20T06:33:48.985Z,1021.5
2017-08-20T06:34:48.169Z,1021.5
2017-08-20T06:35:47.344Z,1021.5
2017-08-20T06:37:45.922Z,1021.5
2017-08-20T06:38:45.102Z,1021.4
2017-08-20T06:40:44.058Z,1021.4
2017-08-20T06:41:43.009Z,1021.4
2017-08-20T06:42:42.464Z,1021.5
2017-08-20T06:43:41.674Z,1021.5
2017-08-20T06:44:40.883Z,1021.4
2017-08-20T06:47:38.488Z,1021.5
2017-08-20T06:48:38.051Z,1021.5
2017-08-20T06:49:36.990Z,1021.4
2017-08-20T06:50:36.672Z,1021.5
2017-08-20T06:51:35.726Z,1021.5
2017-08-20T06:52:34.786Z,1021.5
2017-08-20T06:53:34.243Z,1021.4
2017-08-20T06:54:33.438Z,1021.4
2017-08-20T06:55:32.611Z,1021.5
2017-08-20T06:56:31.809Z,1021.5
2017-08-20T06:57:31.521Z,1021.5
2017-08-20T06:58:30.463Z,1021.5
2017-08-20T06:59:29.909Z,1021.5
2017-08-20T07:00:29.094Z,1021.6
2017-08-20T07:01:28.273Z,1021.6
2017-08-20T07:02:27.445Z,1021.6
2017-08-20T07:03:26.616Z,1021.7
2017-08-20T07:04:26.308Z,1021.7
2017-08-20T07:06:24.773Z,1021.7
2017-08-20T07:07:23.952Z,1021.7
2017-08-20T07:09:22.291Z,1021.6
2017-08-20T07:10:21.857Z,1021.6
2017-08-20T07:11:21.036Z,1021.7
2017-08-20T07:12:20.219Z,1021.7
2017-08-20T07:13:19.392Z,1021.7
2017-08-20T07:14:18.588Z,1021.7
2017-08-20T07:16:17.157Z,1021.7
2017-08-20T07:17:16.333Z,1021.7
2017-08-20T07:18:15.779Z,1021.7
2017-08-20T07:19:14.991Z,1021.7
2017-08-20T07:20:14.170Z,1021.7
2017-08-20T07:21:13.854Z,1021.8
2017-08-20T07:22:13.033Z,1021.8
2017-08-20T07:23:12.102Z,1021.8
2017-08-20T07:24:11.290Z,1021.8
2017-08-20T07:25:10.857Z,1021.8
2017-08-20T07:26:09.906Z,1021.8
2017-08-20T07:27:09.083Z,1021.8
2017-08-20T07:28:08.646Z,1021.7
2017-08-20T07:29:07.700Z,1021.7
2017-08-20T07:30:07.170Z,1021.8
2017-08-20T07:31:06.612Z,1021.7
2017-08-20T07:32:05.591Z,1021.8
2017-08-20T07:33:04.913Z,1021.8
2017-08-20T07:34:03.981Z,1021.7
2017-08-20T07:35:03.426Z,1021.7
2017-08-20T07:36:02.600Z,1021.7
2017-08-20T07:37:02.286Z,1021.7
2017-08-20T07:38:01.344Z,1021.7
2017-08-20T07:39:00.534Z,1021.6
2017-08-20T07:39:59.709Z,1021.7
2017-08-20T07:41:58.278Z,1021.6
2017-08-20T07:42:57.965Z,1021.6
2017-08-20T07:43:57.023Z,1021.7
2017-08-20T07:44:56.207Z,1021.6
2017-08-20T07:45:55.782Z,1021.6
2017-08-20T07:46:54.844Z,1021.6
2017-08-20T07:47:54.021Z,1021.7
2017-08-20T07:48:53.197Z,1021.7
2017-08-20T07:49:52.827Z,1021.7
2017-08-20T07:50:52.000Z,1021.7
2017-08-20T07:51:51.064Z,1021.7
2017-08-20T07:53:49.642Z,1021.7
2017-08-20T07:54:49.207Z,1021.7
2017-08-20T07:55:48.262Z,1021.7
2017-08-20T07:56:47.829Z,1021.7
2017-08-20T07:57:46.881Z,1021.7
2017-08-20T07:58:46.059Z,1021.7
2017-08-20T07:59:45.502Z,1021.7
2017-08-20T08:00:44.949Z,1021.7
2017-08-20T08:01:44.008Z,1021.7
2017-08-20T08:02:43.700Z,1021.7
2017-08-20T08:03:42.759Z,1021.7
2017-08-20T08:04:41.859Z,1021.6
2017-08-20T08:05:41.303Z,1021.6
2017-08-20T08:07:40.139Z,1021.6
2017-08-20T08:08:39.090Z,1021.6
2017-08-20T08:09:38.772Z,1021.7
2017-08-20T08:10:37.711Z,1021.6
2017-08-20T08:11:37.155Z,1021.7
2017-08-20T08:13:35.740Z,1021.7
2017-08-20T08:15:34.185Z,1021.7
2017-08-20T08:16:33.877Z,1021.6
2017-08-20T08:17:33.201Z,1021.6
2017-08-20T08:18:32.384Z,1021.7
2017-08-20T08:20:30.708Z,1021.7
2017-08-20T08:21:30.159Z,1021.7
2017-08-20T08:22:00.526Z,1021.7
2017-08-20T08:22:30.908Z,1021.7
2017-08-20T08:23:01.405Z,1021.7
2017-08-20T08:24:28.274Z,1021.7
2017-08-20T08:25:27.450Z,1021.7
2017-08-20T08:26:26.629Z,1021.7
2017-08-20T08:27:26.080Z,1021.7
2017-08-20T08:28:25.140Z,1021.7
2017-08-20T08:29:24.831Z,1021.7
2017-08-20T08:30:24.012Z,1021.7
2017-08-20T08:31:23.207Z,1021.7
2017-08-20T08:32:22.388Z,1021.7
2017-08-20T08:34:21.218Z,1021.6
2017-08-20T08:35:20.279Z,1021.7
2017-08-20T08:36:19.746Z,1021.7
2017-08-20T08:37:19.309Z,1021.7
2017-08-20T08:38:18.632Z,1021.7
2017-08-20T08:39:17.816Z,1021.7
2017-08-20T08:40:16.992Z,1021.7
2017-08-20T08:40:47.483Z,1021.7
2017-08-20T08:42:15.859Z,1021.7
2017-08-20T08:43:15.031Z,1021.7
2017-08-20T08:45:13.600Z,1021.7
2017-08-20T08:46:13.168Z,1021.7
2017-08-20T08:47:12.220Z,1021.7
2017-08-20T08:48:11.785Z,1021.7
2017-08-20T08:49:10.962Z,1021.7
2017-08-20T08:50:10.133Z,1021.7
2017-08-20T08:51:09.314Z,1021.7
2017-08-20T08:52:08.648Z,1021.7
2017-08-20T08:53:08.327Z,1021.7
2017-08-20T08:54:07.507Z,1021.8
2017-08-20T08:55:06.565Z,1021.8
2017-08-20T08:56:06.129Z,1021.8
2017-08-20T08:57:05.196Z,1021.8
2017-08-20T08:58:04.637Z,1021.8
2017-08-20T08:59:04.213Z,1021.8
2017-08-20T09:00:03.419Z,1021.7
2017-08-20T09:01:02.808Z,1021.7
2017-08-20T09:02:01.988Z,1021.7
2017-08-20T09:03:01.168Z,1021.7
2017-08-20T09:04:00.851Z,1021.7
2017-08-20T09:04:59.915Z,1021.7
2017-08-20T09:05:59.472Z,1021.8
2017-08-20T09:06:58.535Z,1021.7
2017-08-20T09:07:57.970Z,1021.8
2017-08-20T09:08:57.143Z,1021.7
2017-08-20T09:09:56.819Z,1021.7
2017-08-20T09:10:55.999Z,1021.7
2017-08-20T09:11:55.063Z,1021.7
2017-08-20T09:12:54.755Z,1021.7
2017-08-20T09:13:53.949Z,1021.7
2017-08-20T09:14:53.128Z,1021.7
2017-08-20T09:15:52.818Z,1021.7
2017-08-20T09:16:51.874Z,1021.7
2017-08-20T09:17:51.441Z,1021.7
2017-08-20T09:18:50.513Z,1021.7
2017-08-20T09:19:49.962Z,1021.7
2017-08-20T09:20:49.018Z,1021.8
2017-08-20T09:21:48.710Z,1021.8
2017-08-20T09:22:47.774Z,1021.8
2017-08-20T09:23:47.341Z,1021.8
2017-08-20T09:24:46.393Z,1021.8
2017-08-20T09:25:45.964Z,1021.8
2017-08-20T09:26:45.403Z,1021.8
2017-08-20T09:27:44.457Z,1021.8
2017-08-20T09:28:44.025Z,1021.8
2017-08-20T09:30:42.588Z,1021.8
2017-08-20T09:31:42.033Z,1021.8
2017-08-20T09:33:40.368Z,1021.8
2017-08-20T09:34:39.704Z,1021.8
2017-08-20T09:35:39.033Z,1021.8
2017-08-20T09:36:38.595Z,1021.8
2017-08-20T09:37:38.046Z,1021.8
2017-08-20T09:38:37.109Z,1021.8
2017-08-20T09:39:36.673Z,1021.8
2017-08-20T09:40:35.853Z,1021.8
2017-08-20T09:41:35.417Z,1021.8
2017-08-20T09:42:34.484Z,1021.8
2017-08-20T09:43:33.667Z,1021.8
2017-08-20T09:44:33.113Z,1021.7
2017-08-20T09:45:32.566Z,1021.8
2017-08-20T09:46:32.013Z,1021.8
2017-08-20T09:47:31.336Z,1021.8
2017-08-20T09:48:30.668Z,1021.8
2017-08-20T09:49:29.840Z,1021.8
2017-08-20T09:50:29.416Z,1021.8
2017-08-20T09:51:28.479Z,1021.8
2017-08-20T09:52:28.154Z,1021.8
2017-08-20T09:53:27.351Z,1021.7
2017-08-20T09:54:26.532Z,1021.7
2017-08-20T09:55:25.712Z,1021.7
2017-08-20T09:56:25.392Z,1021.7
2017-08-20T09:57:24.568Z,1021.7
2017-08-20T09:58:24.029Z,1021.8
2017-08-20T09:59:23.207Z,1021.8
2017-08-20T10:00:22.392Z,1021.8
2017-08-20T10:01:22.083Z,1021.8
2017-08-20T10:02:21.413Z,1021.8
2017-08-20T10:03:20.589Z,1021.8
2017-08-20T10:04:21.258Z,1021.8
2017-08-20T10:05:19.219Z,1021.9
2017-08-20T10:06:18.404Z,1021.8
2017-08-20T10:08:17.473Z,1021.8
2017-08-20T10:09:16.528Z,1021.8
2017-08-20T10:10:15.995Z,1021.8
2017-08-20T10:11:15.171Z,1021.8
2017-08-20T10:12:14.848Z,1021.8
2017-08-20T10:13:13.920Z,1021.8
2017-08-20T10:14:13.485Z,1021.8
2017-08-20T10:15:12.440Z,1021.8
2017-08-20T10:16:12.121Z,1021.9
2017-08-20T10:17:11.315Z,1021.8
2017-08-20T10:18:10.787Z,1021.8
2017-08-20T10:20:09.243Z,1021.8
2017-08-20T10:21:08.441Z,1021.8
2017-08-20T10:22:08.137Z,1021.8
2017-08-20T10:23:07.108Z,1021.8
2017-08-20T10:24:06.693Z,1021.8
2017-08-20T10:25:05.769Z,1021.8
2017-08-20T10:26:05.347Z,1021.8
2017-08-20T10:27:04.522Z,1021.8
2017-08-20T10:28:04.221Z,1021.7
2017-08-20T10:29:03.415Z,1021.7
2017-08-20T10:30:02.880Z,1021.7
2017-08-20T10:31:01.961Z,1021.7
2017-08-20T10:32:01.234Z,1021.7
2017-08-20T10:33:00.931Z,1021.7
2017-08-20T10:34:00.013Z,1021.7
2017-08-20T10:34:59.238Z,1021.7
2017-08-20T10:35:58.935Z,1021.6
2017-08-20T10:36:58.014Z,1021.6
2017-08-20T10:37:57.211Z,1021.6
2017-08-20T10:38:56.785Z,1021.6
2017-08-20T10:39:55.974Z,1021.6
2017-08-20T10:41:54.555Z,1021.6
2017-08-20T10:42:54.251Z,1021.6
2017-08-20T10:43:53.330Z,1021.5
2017-08-20T10:44:52.911Z,1021.6
2017-08-20T10:45:52.106Z,1021.5
2017-08-20T10:46:51.691Z,1021.6
2017-08-20T10:48:50.025Z,1021.6
2017-08-20T10:49:49.708Z,1021.6
2017-08-20T10:50:48.664Z,1021.6
2017-08-20T10:51:48.246Z,1021.6
2017-08-20T10:52:47.825Z,1021.5
2017-08-20T10:53:46.906Z,1021.6
2017-08-20T10:54:46.123Z,1021.5
2017-08-20T10:55:45.813Z,1021.5
2017-08-20T10:56:45.021Z,1021.5
2017-08-20T10:57:44.084Z,1021.5
2017-08-20T10:59:43.056Z,1021.5
2017-08-20T11:00:13.436Z,1021.5
2017-08-20T11:01:41.710Z,1021.5
2017-08-20T11:02:41.049Z,1021.5
2017-08-20T11:03:40.233Z,1021.5
2017-08-20T11:04:39.696Z,1021.5
2017-08-20T11:05:39.271Z,1021.5
2017-08-20T11:06:38.354Z,1021.5
2017-08-20T11:07:37.923Z,1021.5
2017-08-20T11:09:36.777Z,1021.5
2017-08-20T11:10:36.116Z,1021.5
2017-08-20T11:11:35.306Z,1021.5
2017-08-20T11:12:34.512Z,1021.4
2017-08-20T11:13:33.704Z,1021.4
2017-08-20T11:14:33.295Z,1021.4
2017-08-20T11:15:32.862Z,1021.5
2017-08-20T11:16:31.934Z,1021.5
2017-08-20T11:18:30.802Z,1021.4
2017-08-20T11:19:29.877Z,1021.4
2017-08-20T11:20:29.463Z,1021.4
2017-08-20T11:21:28.528Z,1021.4
2017-08-20T11:22:28.119Z,1021.4
2017-08-20T11:24:26.704Z,1021.5
2017-08-20T11:25:26.272Z,1021.4
2017-08-20T11:26:25.356Z,1021.4
2017-08-20T11:27:24.819Z,1021.4
2017-08-20T11:28:24.270Z,1021.4
2017-08-20T11:29:23.449Z,1021.4
2017-08-20T11:30:23.169Z,1021.4
2017-08-20T11:31:22.363Z,1021.4
2017-08-20T11:32:21.433Z,1021.4
2017-08-20T11:33:21.283Z,1021.3
2017-08-20T11:34:20.226Z,1021.3
2017-08-20T11:35:19.805Z,1021.3
2017-08-20T11:36:18.991Z,1021.3
2017-08-20T11:37:18.565Z,1021.3
2017-08-20T11:38:18.028Z,1021.3
2017-08-20T11:39:17.087Z,1021.2
2017-08-20T11:40:16.802Z,1021.3
2017-08-20T11:41:15.762Z,1021.2
2017-08-20T11:42:15.342Z,1021.3
2017-08-20T11:43:14.427Z,1021.2
2017-08-20T11:44:14.016Z,1021.2
2017-08-20T11:46:12.608Z,1021.2
2017-08-20T11:47:12.215Z,1021.2
2017-08-20T11:48:11.412Z,1021.2
2017-08-20T11:49:10.613Z,1021.3
2017-08-20T11:50:10.200Z,1021.3
2017-08-20T11:51:09.384Z,1021.3
2017-08-20T11:52:09.080Z,1021.3
2017-08-20T11:53:08.165Z,1021.3
2017-08-20T11:54:07.918Z,1021.3
2017-08-20T11:55:07.109Z,1021.3
2017-08-20T11:57:05.696Z,1021.3
2017-08-20T11:58:05.400Z,1021.3
2017-08-20T11:59:04.462Z,1021.3
2017-08-20T12:00:04.154Z,1021.3
2017-08-20T12:01:03.110Z,1021.3
2017-08-20T12:02:02.804Z,1021.4
2017-08-20T12:03:02.005Z,1021.4
2017-08-20T12:04:01.585Z,1021.4
2017-08-20T12:05:00.658Z,1021.3
2017-08-20T12:06:00.370Z,1021.4
2017-08-20T12:06:59.831Z,1021.2
2017-08-20T12:07:59.031Z,1021.3
2017-08-20T12:08:58.632Z,1021.4
2017-08-20T12:09:57.705Z,1021.4
2017-08-20T12:10:56.892Z,1021.4
2017-08-20T12:11:56.349Z,1021.4
2017-08-20T12:12:55.819Z,1021.4
2017-08-20T12:13:55.515Z,1021.5
2017-08-20T12:14:54.480Z,1021.5
2017-08-20T12:15:53.941Z,1021.5
2017-08-20T12:16:53.634Z,1021.5
2017-08-20T12:17:52.823Z,1021.6
2017-08-20T12:18:52.021Z,1021.6
2017-08-20T12:19:51.595Z,1021.6
2017-08-20T12:20:50.679Z,1021.5
2017-08-20T12:21:50.376Z,1021.5
2017-08-20T12:22:49.579Z,1021.6
2017-08-20T12:23:49.039Z,1021.6
2017-08-20T12:24:48.509Z,1021.7
2017-08-20T12:25:47.573Z,1021.7
2017-08-20T12:26:47.272Z,1021.7
2017-08-20T12:27:46.469Z,1021.6
2017-08-20T12:28:45.668Z,1021.6
2017-08-20T12:29:45.132Z,1021.7
2017-08-20T12:30:44.736Z,1021.7
2017-08-20T12:31:43.810Z,1021.7
2017-08-20T12:32:43.266Z,1021.7
2017-08-20T12:33:42.478Z,1021.7
2017-08-20T12:34:41.945Z,1021.7
2017-08-20T12:35:41.294Z,1021.7
2017-08-20T12:36:40.754Z,1021.7
2017-08-20T12:37:39.833Z,1021.7
2017-08-20T12:38:39.411Z,1021.7
2017-08-20T12:39:38.612Z,1021.7
2017-08-20T12:40:38.187Z,1021.7
2017-08-20T12:41:37.653Z,1021.8
2017-08-20T12:42:36.720Z,1021.8
2017-08-20T12:43:36.295Z,1021.7
2017-08-20T12:47:33.660Z,1021.8
2017-08-20T12:48:32.724Z,1021.8
2017-08-20T12:49:32.062Z,1021.8
2017-08-20T12:50:31.522Z,1021.9
2017-08-20T12:51:30.976Z,1021.9
2017-08-20T12:52:30.435Z,1021.9
2017-08-20T12:53:29.616Z,1021.9
2017-08-20T12:54:29.078Z,1021.8
2017-08-20T12:55:28.145Z,1021.9
2017-08-20T12:56:27.836Z,1021.9
2017-08-20T12:57:26.905Z,1021.9
2017-08-20T12:58:26.612Z,1021.8
2017-08-20T12:59:25.809Z,1021.9
2017-08-20T13:00:25.163Z,1021.8
2017-08-20T13:01:24.738Z,1021.9
2017-08-20T13:02:23.928Z,1021.8
2017-08-20T13:03:23.378Z,1021.8
2017-08-20T13:04:22.459Z,1021.8
2017-08-20T13:05:21.908Z,1021.9
2017-08-20T13:06:21.485Z,1021.8
2017-08-20T13:07:20.684Z,1021.8
2017-08-20T13:08:19.747Z,1021.8
2017-08-20T13:09:19.437Z,1021.8
2017-08-20T13:10:18.884Z,1021.8
2017-08-20T13:11:18.085Z,1021.8
2017-08-20T13:12:17.269Z,1021.8
2017-08-20T13:13:16.464Z,1021.8
2017-08-20T13:14:15.940Z,1021.8
2017-08-20T13:15:15.401Z,1021.8
2017-08-20T13:16:14.580Z,1021.9
2017-08-20T13:17:14.277Z,1021.9
2017-08-20T13:18:13.463Z,1021.8
2017-08-20T13:19:12.658Z,1021.9
2017-08-20T13:20:12.358Z,1021.8
2017-08-20T13:21:11.548Z,1021.8
2017-08-20T13:22:10.611Z,1021.8
2017-08-20T13:23:10.192Z,1021.8
2017-08-20T13:24:09.653Z,1021.8
2017-08-20T13:25:08.883Z,1021.8
2017-08-20T13:26:08.444Z,1021.8
2017-08-20T13:27:07.517Z,1021.8
2017-08-20T13:28:07.093Z,1021.8
2017-08-20T13:29:06.296Z,1021.8